Etusivu
METAR-TAF:

METAR-TAF

Lentoasemat :

Puvirnituq, Quebec, Kanada

Leveyspiiri: 60-03N, Pituuspiiri: 077-17W, korkeus merenpinnasta: 23 m

Tämänhetkinen sää

Tämä raportti tehtiin 44 minuuttia sitten, kello 03.00 UTC
Tuuli 2 kn etelästä/lounaasta
Lämpötila -32°C
Kosteus 67%
Ilmanpaine 1025 hPa
Näkyvyys: 14.5 km
selkeää

METAR: CYPX 250300Z AUTO 21002KT 9SM CLR M32/M36 A3026 RMK SLP252

Aika: 22:44 (03:44 UTC)

Sääennuste

Tämä raportti tehtiin 4 tuntia ja 3 minuuttia sitten, kello 23.41 UTC
Ennuste voimassa 25. päivästä klo 00 UTC - 25. päivään klo 12 UTC
Tuuli 3 kn eri suunnista
Näkyvyys: 10 km
selkeää
Tulossa
25. päivästä klo 00 UTC - 25. päivään klo 02 UTC
Tuuli 5 kn etelästä/kaakosta
Tulossa
25. päivästä klo 09 UTC - 25. päivään klo 11 UTC
Tuuli 8 kn luoteesta

TAF: CYPX 242341Z 2500/2512 VRB03KT P6SM SKC BECMG 2500/2502 16005KT BECMG 2509/2511 32008KT RMK FCST BASED ON AUTO OBS. NXT FCST BY 250600Z

Säähavainnot ja -ennusteet yli 4000 lentoasemalta (METAR- ja TAF-raportit).

Käytössä olevat sääasemat on merkitty karttaan keltaisilla ja punaisilla pisteillä.

Aseta hiiri pisteen päälle nähdäksesi sääaseman nimen.

Klikkaa sitten nähdäksesi säähavainnot ja -ennusteet.

Kartan vaihtaminen: klikkaa mustalla rastilla varustettuja vihreitä pisteitä, niin voit zoomata sisään; viivalla varustettua vihreää pistettä, niin voit zoomata ulos tai vihreitä nuolia, niin pääset viereisille kartoille.


METAR-TAF: